Time;durP1;ratioP1;P1;durP2;ratioP2;P2;SDS_P1;SDS_P2;PMS_P1;PMS_P2;Temp;Humidity;BMP_temperature;BMP_pressure;BME280_temperature;BME280_humidity;BME280_pressure;Samples;Min_cycle;Max_cycle;Signal;HPM_P1;HPM_P2
2024/03/25 00:00:24;;;;;;;9.98;3.20;;;;;;;;;;5056518;28;20051;-75
2024/03/25 00:02:51;;;;;;;10.07;3.53;;;;;;;;;;5056920;28;20130;-76
2024/03/25 00:05:22;;;;;;;9.68;3.97;;;;;;;;;;5056447;28;20182;-75
2024/03/25 00:07:49;;;;;;;18.58;12.35;;;;;;;;;;5056835;28;20047;-75
2024/03/25 00:10:15;;;;;;;18.13;11.43;;;;;;;;;;5056136;28;20040;-76
2024/03/25 00:12:41;;;;;;;20.30;11.57;;;;;;;;;;5056599;28;20071;-76
2024/03/25 00:15:07;;;;;;;13.73;7.93;;;;;;;;;;5056122;28;20467;-75
2024/03/25 00:17:34;;;;;;;13.93;8.75;;;;;;;;;;5056785;28;20048;-76
2024/03/25 00:19:59;;;;;;;12.63;5.28;;;;;;;;;;5056443;28;20045;-76
2024/03/25 00:22:25;;;;;;;8.68;3.15;;;;;;;;;;5055288;28;20162;-75
2024/03/25 00:24:51;;;;;;;9.75;3.05;;;;;;;;;;5056289;28;20063;-76
2024/03/25 00:27:17;;;;;;;5.95;2.63;;;;;;;;;;5055938;28;20048;-76
2024/03/25 00:29:44;;;;;;;12.35;6.57;;;;;;;;;;5056347;28;20471;-75
2024/03/25 00:32:10;;;;;;;13.98;8.15;;;;;;;;;;5055848;28;20066;-76
2024/03/25 00:34:36;;;;;;;12.65;7.95;;;;;;;;;;5056062;28;20040;-76
2024/03/25 00:37:03;;;;;;;11.52;4.38;;;;;;;;;;5056274;28;20075;-75
2024/03/25 00:39:32;;;;;;;13.93;7.70;;;;;;;;;;5055939;28;20041;-75
2024/03/25 00:41:58;;;;;;;21.30;11.90;;;;;;;;;;5056263;28;20044;-75
2024/03/25 00:44:24;;;;;;;16.17;6.75;;;;;;;;;;5055740;28;20048;-76
2024/03/25 00:46:51;;;;;;;9.63;4.25;;;;;;;;;;5055912;28;20044;-76
2024/03/25 00:49:17;;;;;;;14.98;6.00;;;;;;;;;;5055717;28;20376;-76
2024/03/25 00:51:42;;;;;;;6.60;3.00;;;;;;;;;;5056046;28;20056;-76
2024/03/25 00:54:08;;;;;;;10.38;4.15;;;;;;;;;;5055322;28;20043;-76
2024/03/25 00:56:34;;;;;;;18.13;10.00;;;;;;;;;;5055970;28;20497;-76
2024/03/25 00:59:02;;;;;;;18.63;9.10;;;;;;;;;;5055792;28;20040;-76
2024/03/25 01:01:32;;;;;;;11.88;4.63;;;;;;;;;;5055470;28;20101;-76
2024/03/25 01:03:58;;;;;;;8.32;3.08;;;;;;;;;;5055628;28;20066;-76
2024/03/25 01:06:24;;;;;;;10.40;4.35;;;;;;;;;;5055181;28;20052;-76
2024/03/25 01:08:50;;;;;;;8.95;3.10;;;;;;;;;;5055618;28;20071;-75
2024/03/25 01:11:17;;;;;;;13.85;5.03;;;;;;;;;;5055170;28;20081;-76
2024/03/25 01:13:42;;;;;;;11.85;4.97;;;;;;;;;;5055541;28;20067;-77
2024/03/25 01:16:09;;;;;;;16.13;6.28;;;;;;;;;;5055229;28;20040;-76
2024/03/25 01:18:35;;;;;;;10.73;4.32;;;;;;;;;;5055406;28;20442;-75
2024/03/25 01:21:00;;;;;;;8.55;3.35;;;;;;;;;;5055549;28;20041;-76
2024/03/25 01:23:26;;;;;;;7.43;2.53;;;;;;;;;;5054928;28;20048;-76
2024/03/25 01:25:52;;;;;;;7.65;3.03;;;;;;;;;;5055177;28;20055;-75
2024/03/25 01:28:18;;;;;;;8.65;2.80;;;;;;;;;;5054768;28;20050;-76
2024/03/25 01:30:44;;;;;;;5.82;2.85;;;;;;;;;;5055281;28;20037;-75
2024/03/25 01:33:10;;;;;;;6.85;2.10;;;;;;;;;;5054679;28;20079;-75
2024/03/25 01:35:35;;;;;;;6.00;2.03;;;;;;;;;;5055201;28;20045;-76
2024/03/25 01:38:01;;;;;;;6.95;1.75;;;;;;;;;;5055220;28;20467;-76
2024/03/25 01:40:27;;;;;;;5.38;1.70;;;;;;;;;;5054015;28;20409;-76
2024/03/25 01:43:01;;;;;;;5.50;2.08;;;;;;;;;;5053638;28;20467;-76
2024/03/25 01:45:30;;;;;;;5.75;1.98;;;;;;;;;;5053190;28;20045;-76
2024/03/25 01:48:03;;;;;;;5.32;1.83;;;;;;;;;;5053558;28;20032;-76
2024/03/25 01:50:30;;;;;;;8.48;2.42;;;;;;;;;;5052982;28;20044;-76
2024/03/25 01:52:57;;;;;;;5.80;1.75;;;;;;;;;;5053390;28;20063;-75
2024/03/25 01:55:25;;;;;;;4.15;1.40;;;;;;;;;;5054054;28;20052;-75
2024/03/25 01:57:52;;;;;;;;;;;;;;;;;;5053912;28;20040;-76
2024/03/25 02:00:18;;;;;;;8.20;1.70;;;;;;;;;;5052821;28;19924;-76
2024/03/25 02:02:45;;;;;;;6.00;1.83;;;;;;;;;;5053142;28;20417;-76
2024/03/25 02:05:11;;;;;;;5.88;1.80;;;;;;;;;;5052954;28;20039;-75
2024/03/25 02:07:38;;;;;;;9.38;2.50;;;;;;;;;;5053261;28;20514;-76
2024/03/25 02:10:05;;;;;;;6.18;1.90;;;;;;;;;;5053793;28;20036;-76
2024/03/25 02:12:31;;;;;;;6.85;1.85;;;;;;;;;;5052815;28;20049;-76
2024/03/25 02:14:58;;;;;;;4.63;1.52;;;;;;;;;;5053243;28;20043;-76
2024/03/25 02:17:24;;;;;;;6.50;1.80;;;;;;;;;;5052768;28;20040;-76
2024/03/25 02:19:50;;;;;;;5.95;1.70;;;;;;;;;;5052291;28;20425;-76
2024/03/25 02:22:16;;;;;;;5.38;1.52;;;;;;;;;;5053943;28;20475;-76
2024/03/25 02:24:45;;;;;;;4.05;1.65;;;;;;;;;;5054756;28;20041;-75
2024/03/25 02:27:14;;;;;;;3.25;1.50;;;;;;;;;;5054073;28;20093;-76
2024/03/25 02:29:41;;;;;;;3.95;1.45;;;;;;;;;;5054620;28;20417;-75
2024/03/25 02:32:11;;;;;;;2.00;1.35;;;;;;;;;;5054241;28;20036;-75
2024/03/25 02:34:38;;;;;;;5.15;1.70;;;;;;;;;;5054420;28;20033;-76
2024/03/25 02:37:04;;;;;;;5.68;1.90;;;;;;;;;;5053937;28;20044;-75
2024/03/25 02:39:31;;;;;;;5.63;1.75;;;;;;;;;;5054624;28;20087;-75
2024/03/25 02:41:56;;;;;;;3.90;1.90;;;;;;;;;;5054565;28;20044;-76
2024/03/25 02:44:23;;;;;;;6.65;1.60;;;;;;;;;;5054842;28;20071;-76
2024/03/25 02:46:49;;;;;;;6.10;1.60;;;;;;;;;;5058328;28;20036;-76
2024/03/25 02:49:15;;;;;;;4.38;1.55;;;;;;;;;;5057995;28;20041;-76
2024/03/25 02:51:41;;;;;;;2.33;1.05;;;;;;;;;;5058300;28;20040;-76
2024/03/25 02:54:07;;;;;;;4.05;1.30;;;;;;;;;;5057884;28;20044;-76
2024/03/25 02:56:35;;;;;;;3.67;1.02;;;;;;;;;;5058200;28;20056;-76
2024/03/25 02:59:00;;;;;;;5.10;1.30;;;;;;;;;;5058335;28;20521;-76
2024/03/25 03:01:26;;;;;;;3.30;1.10;;;;;;;;;;5057507;28;20271;-76
2024/03/25 03:03:52;;;;;;;1.40;1.15;;;;;;;;;;5058021;28;20036;-75
2024/03/25 03:06:18;;;;;;;3.70;1.08;;;;;;;;;;5057474;28;20100;-75
2024/03/25 03:08:44;;;;;;;4.30;1.30;;;;;;;;;;5058045;28;20364;-75
2024/03/25 03:11:10;;;;;;;4.70;1.05;;;;;;;;;;5057242;28;20059;-75
2024/03/25 03:13:36;;;;;;;3.38;1.00;;;;;;;;;;5057793;28;20045;-76
2024/03/25 03:16:02;;;;;;;7.40;1.10;;;;;;;;;;5057901;28;20036;-76
2024/03/25 03:18:28;;;;;;;2.60;0.82;;;;;;;;;;5040469;28;20047;-76
2024/03/25 03:20:56;;;;;;;3.13;0.90;;;;;;;;;;5057839;28;20032;-75
2024/03/25 03:23:23;;;;;;;3.05;0.90;;;;;;;;;;5057467;28;20475;-76
2024/03/25 03:25:48;;;;;;;7.35;1.48;;;;;;;;;;5057405;28;20044;-75
2024/03/25 03:28:15;;;;;;;2.38;0.88;;;;;;;;;;5057182;28;20341;-76
2024/03/25 03:30:41;;;;;;;3.95;1.05;;;;;;;;;;5057480;28;20050;-76
2024/03/25 03:33:07;;;;;;;3.60;0.95;;;;;;;;;;5056969;28;20041;-76
2024/03/25 03:35:33;;;;;;;7.10;0.90;;;;;;;;;;5057448;28;20043;-76
2024/03/25 03:38:00;;;;;;;4.93;1.00;;;;;;;;;;5057377;28;20478;-76
2024/03/25 03:40:26;;;;;;;6.03;0.70;;;;;;;;;;5057261;28;20055;-76
2024/03/25 03:42:51;;;;;;;3.63;0.90;;;;;;;;;;5057138;28;20041;-76
2024/03/25 03:45:17;;;;;;;1.92;0.93;;;;;;;;;;5056921;28;20395;-76
2024/03/25 03:47:43;;;;;;;6.50;1.30;;;;;;;;;;5057107;28;20398;-75
2024/03/25 03:50:09;;;;;;;6.63;1.23;;;;;;;;;;5056885;28;20128;-75
2024/03/25 03:52:35;;;;;;;7.25;0.90;;;;;;;;;;5057144;28;20041;-76
2024/03/25 03:55:01;;;;;;;3.35;0.85;;;;;;;;;;5056909;28;20115;-76
2024/03/25 03:57:26;;;;;;;4.03;0.80;;;;;;;;;;5039139;28;20040;-76
2024/03/25 03:59:52;;;;;;;3.58;0.80;;;;;;;;;;5057144;28;20158;-76
2024/03/25 04:02:18;;;;;;;4.80;1.00;;;;;;;;;;5056380;28;20082;-76
2024/03/25 04:04:44;;;;;;;3.67;1.20;;;;;;;;;;5056984;28;20482;-76
2024/03/25 04:07:10;;;;;;;4.63;1.02;;;;;;;;;;5056513;28;20463;-76
2024/03/25 04:09:35;;;;;;;6.28;0.90;;;;;;;;;;5056908;28;20043;-76
2024/03/25 04:12:01;;;;;;;6.07;0.90;;;;;;;;;;5056854;28;20116;-76
2024/03/25 04:14:27;;;;;;;7.55;0.80;;;;;;;;;;5056234;28;20067;-76
2024/03/25 04:16:53;;;;;;;2.20;0.60;;;;;;;;;;5056597;28;20032;-76
2024/03/25 04:19:25;;;;;;;5.72;1.10;;;;;;;;;;5056189;28;20052;-76
2024/03/25 04:21:52;;;;;;;7.13;0.60;;;;;;;;;;5056644;28;20054;-76
2024/03/25 04:24:18;;;;;;;4.70;0.95;;;;;;;;;;5056003;28;20090;-76
2024/03/25 04:26:44;;;;;;;3.15;0.50;;;;;;;;;;5056441;28;20414;-76
2024/03/25 04:29:10;;;;;;;6.22;0.73;;;;;;;;;;5056113;28;20394;-76
2024/03/25 04:31:37;;;;;;;10.02;0.88;;;;;;;;;;5056291;28;20040;-75
2024/03/25 04:34:04;;;;;;;6.28;0.80;;;;;;;;;;5056264;28;20040;-76
2024/03/25 04:36:30;;;;;;;2.72;0.65;;;;;;;;;;5056023;28;20044;-76
2024/03/25 04:38:57;;;;;;;3.97;0.98;;;;;;;;;;5056024;28;20050;-76
2024/03/25 04:41:23;;;;;;;3.08;0.70;;;;;;;;;;5055982;28;20044;-76
2024/03/25 04:43:49;;;;;;;4.45;0.90;;;;;;;;;;5056204;28;20051;-76
2024/03/25 04:46:14;;;;;;;5.07;1.00;;;;;;;;;;5055773;28;20369;-76
2024/03/25 04:48:40;;;;;;;7.05;0.70;;;;;;;;;;5056136;28;20467;-76
2024/03/25 04:51:06;;;;;;;3.92;0.63;;;;;;;;;;5055591;28;20044;-76
2024/03/25 04:53:32;;;;;;;4.65;0.60;;;;;;;;;;5055796;28;20047;-76
2024/03/25 04:55:58;;;;;;;6.10;0.75;;;;;;;;;;5056030;28;20484;-76
2024/03/25 04:58:23;;;;;;;6.40;0.70;;;;;;;;;;5055523;28;20052;-76
2024/03/25 05:00:49;;;;;;;5.72;0.70;;;;;;;;;;5055904;28;20047;-76
2024/03/25 05:03:15;;;;;;;2.45;0.35;;;;;;;;;;5055348;28;20059;-76
2024/03/25 05:05:40;;;;;;;4.38;0.45;;;;;;;;;;5055795;28;20468;-76
2024/03/25 05:08:06;;;;;;;11.10;1.17;;;;;;;;;;5055004;28;20459;-76
2024/03/25 05:10:32;;;;;;;4.78;0.60;;;;;;;;;;5055617;28;20037;-76
2024/03/25 05:12:58;;;;;;;6.00;0.98;;;;;;;;;;5055439;28;20498;-76
2024/03/25 05:15:23;;;;;;;3.33;0.65;;;;;;;;;;5055008;28;20041;-75
2024/03/25 05:17:49;;;;;;;2.25;0.45;;;;;;;;;;5055548;28;20419;-76
2024/03/25 05:20:15;;;;;;;3.28;0.60;;;;;;;;;;5054803;28;20048;-76
2024/03/25 05:22:40;;;;;;;3.65;0.52;;;;;;;;;;5055619;28;20579;-76
2024/03/25 05:25:07;;;;;;;2.22;0.82;;;;;;;;;;5054982;28;20064;-76
2024/03/25 05:27:33;;;;;;;6.57;0.68;;;;;;;;;;5055210;28;20390;-76
2024/03/25 05:29:59;;;;;;;5.20;0.70;;;;;;;;;;5055330;28;20043;-76
2024/03/25 05:32:25;;;;;;;6.28;0.77;;;;;;;;;;5054613;28;21135;-78
2024/03/25 05:34:50;;;;;;;3.47;0.52;;;;;;;;;;5055117;28;20043;-78
2024/03/25 05:37:16;;;;;;;6.57;1.02;;;;;;;;;;5054762;28;20045;-77
2024/03/25 05:39:42;;;;;;;4.50;0.80;;;;;;;;;;5055097;28;20422;-75
2024/03/25 05:42:08;;;;;;;4.38;0.70;;;;;;;;;;5054688;28;20090;-76
2024/03/25 05:44:33;;;;;;;5.72;0.70;;;;;;;;;;5055140;28;20102;-76
2024/03/25 05:46:59;;;;;;;5.07;0.68;;;;;;;;;;5054771;28;20068;-79
2024/03/25 05:49:25;;;;;;;6.38;1.05;;;;;;;;;;5054671;28;20048;-77
2024/03/25 05:51:51;;;;;;;6.70;0.80;;;;;;;;;;5054410;28;20153;-76
2024/03/25 05:54:17;;;;;;;8.90;1.00;;;;;;;;;;5054303;28;20044;-75
2024/03/25 05:56:43;;;;;;;2.25;0.70;;;;;;;;;;5044824;28;20101;-75
2024/03/25 05:59:08;;;;;;;8.20;1.00;;;;;;;;;;5044721;28;20040;-75
2024/03/25 06:01:37;;;;;;;8.50;0.85;;;;;;;;;;5044170;28;20056;-76
2024/03/25 06:04:03;;;;;;;10.27;1.20;;;;;;;;;;5043782;28;20505;-76
2024/03/25 06:06:29;;;;;;;4.68;1.15;;;;;;;;;;5054483;28;20471;-76
2024/03/25 06:08:55;;;;;;;4.15;0.90;;;;;;;;;;5054605;28;20106;-76
2024/03/25 06:11:21;;;;;;;6.10;1.23;;;;;;;;;;5048940;28;20037;-76
2024/03/25 06:13:47;;;;;;;5.60;0.75;;;;;;;;;;5042504;28;20048;-76
2024/03/25 06:16:13;;;;;;;4.38;0.82;;;;;;;;;;5042535;28;20063;-75
2024/03/25 06:18:40;;;;;;;5.32;1.00;;;;;;;;;;5046050;28;20051;-76
2024/03/25 06:21:06;;;;;;;10.25;1.25;;;;;;;;;;5044785;28;20044;-76
2024/03/25 06:23:32;;;;;;;4.38;0.90;;;;;;;;;;5058607;28;20044;-78
2024/03/25 06:25:58;;;;;;;6.32;0.98;;;;;;;;;;5058561;28;20039;-75
2024/03/25 06:28:24;;;;;;;9.18;1.35;;;;;;;;;;5058198;28;20072;-76
2024/03/25 06:36:21;;;;;;;8.00;1.08;;;;;;;;;;5056170;28;20038;-76
2024/03/25 06:38:47;;;;;;;6.57;0.80;;;;;;;;;;5045169;28;20041;-75
2024/03/25 06:41:13;;;;;;;7.85;1.25;;;;;;;;;;5037979;28;20067;-76
2024/03/25 06:43:39;;;;;;;3.65;0.60;;;;;;;;;;5021227;28;20041;-76
2024/03/25 06:46:06;;;;;;;6.07;1.13;;;;;;;;;;5035835;28;20037;-76
2024/03/25 06:48:32;;;;;;;5.82;1.08;;;;;;;;;;5036285;28;20168;-75
2024/03/25 06:50:59;;;;;;;8.13;0.70;;;;;;;;;;5035965;28;20041;-76
2024/03/25 06:53:25;;;;;;;4.20;0.80;;;;;;;;;;5035905;28;20094;-76
2024/03/25 06:55:59;;;;;;;5.38;0.75;;;;;;;;;;5036784;28;20037;-76
2024/03/25 06:58:26;;;;;;;5.68;0.77;;;;;;;;;;5036215;28;20051;-76
2024/03/25 07:00:53;;;;;;;6.93;1.30;;;;;;;;;;5038243;28;20047;-76
2024/03/25 07:03:20;;;;;;;4.65;1.00;;;;;;;;;;5037695;28;20045;-76
2024/03/25 07:05:52;;;;;;;5.53;1.05;;;;;;;;;;5021756;28;20057;-76
2024/03/25 07:08:19;;;;;;;4.38;0.77;;;;;;;;;;5037606;28;20041;-76
2024/03/25 07:10:45;;;;;;;2.72;0.70;;;;;;;;;;5021593;28;20047;-76
2024/03/25 07:13:12;;;;;;;3.55;1.00;;;;;;;;;;5037458;28;20055;-76
2024/03/25 07:15:38;;;;;;;5.22;1.20;;;;;;;;;;5038061;28;20037;-76
2024/03/25 07:18:04;;;;;;;5.80;0.88;;;;;;;;;;5037560;28;20037;-76
2024/03/25 07:20:30;;;;;;;3.20;0.70;;;;;;;;;;5037589;28;20045;-77
2024/03/25 07:22:57;;;;;;;8.13;0.93;;;;;;;;;;5037972;28;20037;-76
2024/03/25 07:25:23;;;;;;;6.28;0.98;;;;;;;;;;5042072;28;20044;-77
2024/03/25 07:27:49;;;;;;;8.52;1.20;;;;;;;;;;5057589;28;20063;-76
2024/03/25 07:30:15;;;;;;;4.97;1.02;;;;;;;;;;5056937;28;20355;-77
2024/03/25 07:32:41;;;;;;;5.20;0.75;;;;;;;;;;5057574;28;20048;-78
2024/03/25 07:35:09;;;;;;;4.80;0.90;;;;;;;;;;5056727;28;20191;-75
2024/03/25 07:37:35;;;;;;;4.03;0.90;;;;;;;;;;5040703;28;20051;-76
2024/03/25 07:40:01;;;;;;;4.78;1.00;;;;;;;;;;5057641;28;20471;-77
2024/03/25 07:42:27;;;;;;;4.03;1.10;;;;;;;;;;5056563;28;20068;-77
2024/03/25 07:44:53;;;;;;;7.45;1.45;;;;;;;;;;5057155;28;20048;-76
2024/03/25 07:47:18;;;;;;;7.78;1.00;;;;;;;;;;5056646;28;20040;-77
2024/03/25 07:49:44;;;;;;;9.20;1.10;;;;;;;;;;5057436;28;20041;-76
2024/03/25 07:52:10;;;;;;;2.85;1.02;;;;;;;;;;5056612;28;20411;-76
2024/03/25 07:54:37;;;;;;;3.67;0.88;;;;;;;;;;5057238;28;20387;-76
2024/03/25 07:57:04;;;;;;;7.70;1.20;;;;;;;;;;5057101;28;20041;-76
2024/03/25 07:59:30;;;;;;;11.77;1.25;;;;;;;;;;5056961;28;20379;-77
2024/03/25 08:01:56;;;;;;;4.95;0.93;;;;;;;;;;5056909;28;20402;-76
2024/03/25 08:04:21;;;;;;;6.65;1.10;;;;;;;;;;5056459;28;20041;-77
2024/03/25 08:06:47;;;;;;;6.60;1.17;;;;;;;;;;5057024;28;20041;-76
2024/03/25 08:09:15;;;;;;;9.75;1.50;;;;;;;;;;5056257;28;20131;-76
2024/03/25 08:11:43;;;;;;;5.53;1.53;;;;;;;;;;5057127;28;20040;-77
2024/03/25 08:14:09;;;;;;;7.53;1.10;;;;;;;;;;5056964;28;20775;-77
2024/03/25 08:16:35;;;;;;;6.45;1.42;;;;;;;;;;5056832;28;20285;-76
2024/03/25 08:19:01;;;;;;;9.40;1.20;;;;;;;;;;5053151;28;20057;-77
2024/03/25 08:21:28;;;;;;;7.40;1.40;;;;;;;;;;5052863;28;20041;-77
2024/03/25 08:23:53;;;;;;;5.57;1.10;;;;;;;;;;5053364;28;20040;-76
2024/03/25 08:26:19;;;;;;;8.38;1.48;;;;;;;;;;5052538;28;20044;-77
2024/03/25 08:28:45;;;;;;;7.32;1.40;;;;;;;;;;5053250;28;20067;-76
2024/03/25 08:31:10;;;;;;;5.00;1.35;;;;;;;;;;5052721;28;20071;-76
2024/03/25 08:33:36;;;;;;;5.43;1.50;;;;;;;;;;5052786;28;20041;-77
2024/03/25 08:36:03;;;;;;;8.38;2.10;;;;;;;;;;5053144;28;20470;-76
2024/03/25 08:38:29;;;;;;;10.10;1.35;;;;;;;;;;5052728;28;20045;-76
2024/03/25 08:40:55;;;;;;;5.32;1.25;;;;;;;;;;5052967;28;20044;-76
2024/03/25 08:43:20;;;;;;;9.73;1.38;;;;;;;;;;5019036;28;20048;-76
2024/03/25 08:45:46;;;;;;;8.32;1.40;;;;;;;;;;5052872;28;20037;-77
2024/03/25 08:48:12;;;;;;;6.80;1.20;;;;;;;;;;5052395;28;20480;-77
2024/03/25 08:50:38;;;;;;;7.45;1.33;;;;;;;;;;5052703;28;20085;-76
2024/03/25 08:53:04;;;;;;;6.85;1.30;;;;;;;;;;5052416;28;20475;-76
2024/03/25 08:55:30;;;;;;;11.68;1.58;;;;;;;;;;5052674;28;20532;-76
2024/03/25 08:58:00;;;;;;;3.45;1.10;;;;;;;;;;5052714;28;20049;-77
2024/03/25 09:00:27;;;;;;;9.00;1.55;;;;;;;;;;5052290;28;20479;-77
2024/03/25 09:02:53;;;;;;;7.10;1.17;;;;;;;;;;5052295;28;20044;-76
2024/03/25 09:05:20;;;;;;;5.78;1.70;;;;;;;;;;5035561;28;20475;-76
2024/03/25 09:07:51;;;;;;;7.68;1.80;;;;;;;;;;5052410;28;20041;-77
2024/03/25 09:13:02;;;;;;;9.95;2.40;;;;;;;;;;5052006;28;20475;-77
2024/03/25 09:15:29;;;;;;;5.63;2.50;;;;;;;;;;5051833;28;20049;-77
2024/03/25 09:17:55;;;;;;;7.75;2.70;;;;;;;;;;5052235;28;20037;-77
2024/03/25 09:20:21;;;;;;;7.85;2.53;;;;;;;;;;5051676;28;20082;-77
2024/03/25 09:22:50;;;;;;;5.80;2.05;;;;;;;;;;5052200;28;20040;-76
2024/03/25 09:25:16;;;;;;;8.23;2.00;;;;;;;;;;5051442;28;20049;-78
2024/03/25 09:27:49;;;;;;;11.48;2.03;;;;;;;;;;5051963;28;20044;-76
2024/03/25 09:30:15;;;;;;;7.57;2.38;;;;;;;;;;5051676;28;20361;-77
2024/03/25 09:32:42;;;;;;;5.90;1.90;;;;;;;;;;5052026;28;20497;-77
2024/03/25 09:35:11;;;;;;;3.45;1.73;;;;;;;;;;5051394;28;20047;-77
2024/03/25 09:37:38;;;;;;;5.10;1.25;;;;;;;;;;5051888;28;20132;-77
2024/03/25 09:40:04;;;;;;;7.05;1.60;;;;;;;;;;5051886;28;20383;-76
2024/03/25 09:42:49;;;;;;;4.55;1.70;;;;;;;;;;5051518;28;20055;-77
2024/03/25 09:45:18;;;;;;;4.50;1.70;;;;;;;;;;5051303;28;20178;-77
2024/03/25 09:47:47;;;;;;;5.25;1.60;;;;;;;;;;5051839;28;20036;-77
2024/03/25 09:50:21;;;;;;;4.78;1.38;;;;;;;;;;5051364;28;20036;-77
2024/03/25 09:52:48;;;;;;;4.45;1.10;;;;;;;;;;5051780;28;20049;-77
2024/03/25 09:55:14;;;;;;;5.50;1.08;;;;;;;;;;5050227;28;20049;-77
2024/03/25 09:57:41;;;;;;;7.30;1.08;;;;;;;;;;5051619;28;20372;-77
2024/03/25 10:00:10;;;;;;;6.22;1.10;;;;;;;;;;5051276;28;20041;-77
2024/03/25 10:02:40;;;;;;;6.28;1.00;;;;;;;;;;5051609;28;20122;-77
2024/03/25 10:05:07;;;;;;;3.28;1.13;;;;;;;;;;5034647;28;20055;-76
2024/03/25 10:07:34;;;;;;;6.28;1.35;;;;;;;;;;5051689;28;20067;-77
2024/03/25 10:10:06;;;;;;;7.18;1.20;;;;;;;;;;5051556;28;20047;-77
2024/03/25 10:12:32;;;;;;;6.93;1.00;;;;;;;;;;5051328;28;20066;-77
2024/03/25 10:14:58;;;;;;;5.05;0.80;;;;;;;;;;5051378;28;20586;-77
2024/03/25 10:17:24;;;;;;;8.88;1.60;;;;;;;;;;5051256;28;20064;-77
2024/03/25 10:19:50;;;;;;;5.95;1.10;;;;;;;;;;5051322;28;20438;-77
2024/03/25 10:22:16;;;;;;;6.22;1.08;;;;;;;;;;5051080;28;20049;-77
2024/03/25 10:24:43;;;;;;;6.70;1.42;;;;;;;;;;5051243;28;20037;-77
2024/03/25 10:27:23;;;;;;;3.50;0.90;;;;;;;;;;5050863;28;20044;-76
2024/03/25 10:29:53;;;;;;;3.47;0.88;;;;;;;;;;5051120;28;20037;-76
2024/03/25 10:32:19;;;;;;;3.55;1.05;;;;;;;;;;5050909;28;20037;-77
2024/03/25 10:34:45;;;;;;;2.38;0.77;;;;;;;;;;5051020;28;20491;-76
2024/03/25 10:37:11;;;;;;;2.40;0.80;;;;;;;;;;5050914;28;20045;-77
2024/03/25 10:39:50;;;;;;;5.32;1.20;;;;;;;;;;5051266;28;20407;-76
2024/03/25 10:42:19;;;;;;;3.05;1.00;;;;;;;;;;5050913;28;20045;-77
2024/03/25 10:44:47;;;;;;;3.05;0.90;;;;;;;;;;5051378;28;20128;-76
2024/03/25 10:47:21;;;;;;;2.03;0.50;;;;;;;;;;5050864;28;20039;-77
2024/03/25 10:49:58;;;;;;;4.28;1.00;;;;;;;;;;5051290;28;20120;-77
2024/03/25 10:52:26;;;;;;;4.57;0.80;;;;;;;;;;5050556;28;20052;-77
2024/03/25 10:54:54;;;;;;;2.17;1.13;;;;;;;;;;5051042;28;20052;-77
2024/03/25 10:57:20;;;;;;;3.95;1.73;;;;;;;;;;5050773;28;20041;-77
2024/03/25 10:59:46;;;;;;;3.30;0.98;;;;;;;;;;5051052;28;20049;-77
2024/03/25 11:02:12;;;;;;;3.28;1.42;;;;;;;;;;5050562;28;20044;-77
2024/03/25 11:04:40;;;;;;;2.33;0.75;;;;;;;;;;5051137;28;20033;-76
2024/03/25 11:07:14;;;;;;;4.25;0.73;;;;;;;;;;5054158;28;20055;-77
2024/03/25 11:09:41;;;;;;;3.78;1.02;;;;;;;;;;5037983;28;20047;-77
2024/03/25 11:12:09;;;;;;;2.80;0.95;;;;;;;;;;5054247;28;20033;-76
2024/03/25 11:14:35;;;;;;;4.25;0.90;;;;;;;;;;5037941;28;20047;-76
2024/03/25 11:17:01;;;;;;;3.45;1.00;;;;;;;;;;5054361;28;20037;-77
2024/03/25 11:19:29;;;;;;;3.70;0.90;;;;;;;;;;5054044;28;20125;-76
2024/03/25 11:22:08;;;;;;;5.82;1.60;;;;;;;;;;5054520;28;20494;-77
2024/03/25 11:24:36;;;;;;;4.47;1.48;;;;;;;;;;5054376;28;20469;-76
2024/03/25 11:27:02;;;;;;;3.63;1.13;;;;;;;;;;5054256;28;20075;-76
2024/03/25 11:29:30;;;;;;;3.47;0.93;;;;;;;;;;5053893;28;20419;-77
2024/03/25 11:32:01;;;;;;;4.38;1.10;;;;;;;;;;5054199;28;20053;-77
2024/03/25 11:34:27;;;;;;;2.83;0.82;;;;;;;;;;5053715;28;20041;-77
2024/03/25 11:36:56;;;;;;;1.40;0.75;;;;;;;;;;5054321;28;20125;-77
2024/03/25 11:39:22;;;;;;;1.65;0.80;;;;;;;;;;5053983;28;20438;-77
2024/03/25 11:41:48;;;;;;;2.47;0.70;;;;;;;;;;5054190;28;20127;-81
2024/03/25 11:44:14;;;;;;;3.75;0.60;;;;;;;;;;5053611;28;20037;-77
2024/03/25 11:46:40;;;;;;;2.55;0.50;;;;;;;;;;5053923;28;20037;-76
2024/03/25 11:49:17;;;;;;;2.22;0.55;;;;;;;;;;5053512;28;20033;-77
2024/03/25 11:51:46;;;;;;;1.23;0.60;;;;;;;;;;5031043;28;20110;-77
2024/03/25 11:54:12;;;;;;;1.10;0.57;;;;;;;;;;5050002;28;20063;-76
2024/03/25 11:56:38;;;;;;;1.77;0.77;;;;;;;;;;5016094;28;20041;-76
2024/03/25 11:59:05;;;;;;;1.63;0.90;;;;;;;;;;5051901;28;20075;-76
2024/03/25 12:01:31;;;;;;;1.27;0.50;;;;;;;;;;5051597;28;20387;-76
2024/03/25 12:03:57;;;;;;;0.63;0.38;;;;;;;;;;5035691;28;20041;-77
2024/03/25 12:06:23;;;;;;;1.38;0.70;;;;;;;;;;5051456;28;21155;-76
2024/03/25 12:11:33;;;;;;;1.17;0.80;;;;;;;;;;5047417;28;20056;-76
2024/03/25 12:14:00;;;;;;;0.82;0.77;;;;;;;;;;5042789;28;20068;-77
2024/03/25 12:16:26;;;;;;;2.17;0.70;;;;;;;;;;5050826;28;20067;-76
2024/03/25 12:18:52;;;;;;;2.85;1.10;;;;;;;;;;5051046;28;20475;-77
2024/03/25 12:21:20;;;;;;;1.60;0.93;;;;;;;;;;5034644;28;20090;-77
2024/03/25 12:23:47;;;;;;;3.55;1.25;;;;;;;;;;5051287;28;20391;-78
2024/03/25 12:26:13;;;;;;;3.30;0.70;;;;;;;;;;5050362;28;20045;-76
2024/03/25 12:28:40;;;;;;;1.90;0.90;;;;;;;;;;5049300;28;20078;-76
2024/03/25 12:31:08;;;;;;;2.90;1.23;;;;;;;;;;5050429;28;20045;-75
2024/03/25 12:33:41;;;;;;;;;;;;;;;;;;5035407;28;20121;-76
2024/03/25 12:36:06;;;;;;;2.72;0.93;;;;;;;;;;5050817;28;19920;-76
2024/03/25 12:38:32;;;;;;;3.45;1.10;;;;;;;;;;5033760;28;20061;-76
2024/03/25 12:41:08;;;;;;;3.08;1.20;;;;;;;;;;5032323;28;20155;-76
2024/03/25 12:43:35;;;;;;;2.75;1.23;;;;;;;;;;5031442;28;20044;-76
2024/03/25 12:46:03;;;;;;;6.18;2.45;;;;;;;;;;5033186;28;20030;-75
2024/03/25 12:48:29;;;;;;;3.95;1.60;;;;;;;;;;5032417;28;20045;-76
2024/03/25 12:50:55;;;;;;;4.90;1.83;;;;;;;;;;5015448;28;20048;-76
2024/03/25 12:53:21;;;;;;;2.53;1.42;;;;;;;;;;5032306;28;20472;-75
2024/03/25 12:55:47;;;;;;;6.15;2.15;;;;;;;;;;5032945;28;20132;-75
2024/03/25 12:58:13;;;;;;;7.03;1.48;;;;;;;;;;5032316;28;20099;-76
2024/03/25 13:00:40;;;;;;;7.13;1.67;;;;;;;;;;5016625;28;20049;-76
2024/03/25 13:03:07;;;;;;;10.23;1.70;;;;;;;;;;5032374;28;20369;-76
2024/03/25 13:05:34;;;;;;;5.95;2.20;;;;;;;;;;5032542;28;20041;-75
2024/03/25 13:08:01;;;;;;;6.00;2.35;;;;;;;;;;5032648;28;20383;-76
2024/03/25 13:10:27;;;;;;;8.50;2.08;;;;;;;;;;5032154;28;20455;-75
2024/03/25 13:12:53;;;;;;;7.07;1.63;;;;;;;;;;5032389;28;20495;-76
2024/03/25 13:15:19;;;;;;;8.65;1.55;;;;;;;;;;5032116;28;20050;-76
2024/03/25 13:17:45;;;;;;;6.03;1.45;;;;;;;;;;5032430;28;20084;-75
2024/03/25 13:20:11;;;;;;;8.55;1.65;;;;;;;;;;5031763;28;20033;-75
2024/03/25 13:22:38;;;;;;;5.60;1.30;;;;;;;;;;5032237;28;20038;-75
2024/03/25 13:25:03;;;;;;;7.32;1.20;;;;;;;;;;5034149;28;20438;-75
2024/03/25 13:27:29;;;;;;;6.18;1.20;;;;;;;;;;5051539;28;20060;-75
2024/03/25 13:29:55;;;;;;;5.72;1.05;;;;;;;;;;5052033;28;20468;-76
2024/03/25 13:32:21;;;;;;;4.57;1.52;;;;;;;;;;5051527;28;20045;-76
2024/03/25 13:34:47;;;;;;;4.78;1.65;;;;;;;;;;5051905;28;20521;-75
2024/03/25 13:37:13;;;;;;;8.63;1.80;;;;;;;;;;5051456;28;20037;-76
2024/03/25 13:39:39;;;;;;;7.20;1.38;;;;;;;;;;5051864;28;20067;-76
2024/03/25 13:42:04;;;;;;;8.88;1.98;;;;;;;;;;5051198;28;20498;-74
2024/03/25 13:44:30;;;;;;;6.13;1.48;;;;;;;;;;5051839;28;20458;-76
2024/03/25 13:46:56;;;;;;;8.00;1.67;;;;;;;;;;5051670;28;20116;-76
2024/03/25 13:49:23;;;;;;;7.47;1.90;;;;;;;;;;5051416;28;20079;-76
2024/03/25 13:51:59;;;;;;;9.40;2.00;;;;;;;;;;5051696;28;20040;-76
2024/03/25 13:54:26;;;;;;;4.80;1.27;;;;;;;;;;5051168;28;20044;-75
2024/03/25 13:56:52;;;;;;;15.32;2.15;;;;;;;;;;5051759;28;20053;-76
2024/03/25 13:59:18;;;;;;;10.80;2.10;;;;;;;;;;5051480;28;20041;-76
2024/03/25 14:01:44;;;;;;;10.27;2.22;;;;;;;;;;5051541;28;20102;-76
2024/03/25 14:04:10;;;;;;;8.85;1.98;;;;;;;;;;5051102;28;20479;-75
2024/03/25 14:06:36;;;;;;;8.25;2.13;;;;;;;;;;5051656;28;20404;-75
2024/03/25 14:09:05;;;;;;;13.95;2.60;;;;;;;;;;5051522;28;20044;-76
2024/03/25 14:11:31;;;;;;;10.15;2.17;;;;;;;;;;5051355;28;20079;-75
2024/03/25 14:13:57;;;;;;;8.98;1.42;;;;;;;;;;5051491;28;20111;-76
2024/03/25 14:16:23;;;;;;;6.25;1.08;;;;;;;;;;5050834;28;20048;-76
2024/03/25 14:18:49;;;;;;;5.97;1.50;;;;;;;;;;5051327;28;20053;-76
2024/03/25 14:21:14;;;;;;;4.30;1.10;;;;;;;;;;5051021;28;20037;-75
2024/03/25 14:23:43;;;;;;;7.30;1.40;;;;;;;;;;5051278;28;20076;-75
2024/03/25 14:26:09;;;;;;;7.07;1.35;;;;;;;;;;5050947;28;20040;-76
2024/03/25 14:28:37;;;;;;;4.53;1.40;;;;;;;;;;5051365;28;20041;-76
2024/03/25 14:31:03;;;;;;;5.13;1.50;;;;;;;;;;5051217;28;20051;-75
2024/03/25 14:33:29;;;;;;;4.85;1.35;;;;;;;;;;5051165;28;20045;-75
2024/03/25 14:35:55;;;;;;;7.40;1.30;;;;;;;;;;5051203;28;20468;-75
2024/03/25 14:38:21;;;;;;;6.35;1.70;;;;;;;;;;5050886;28;20047;-76
2024/03/25 14:40:47;;;;;;;5.15;1.80;;;;;;;;;;5052767;28;20049;-75
2024/03/25 14:43:13;;;;;;;8.10;2.40;;;;;;;;;;5054820;28;20049;-76
2024/03/25 14:45:39;;;;;;;12.07;2.33;;;;;;;;;;5055173;28;20048;-75
2024/03/25 14:48:05;;;;;;;4.07;1.48;;;;;;;;;;5054914;28;20041;-74
2024/03/25 14:50:31;;;;;;;9.27;2.25;;;;;;;;;;5038276;28;20078;-76